Time;durP1;ratioP1;P1;durP2;ratioP2;P2;SDS_P1;SDS_P2;PMS_P1;PMS_P2;Temp;Humidity;BMP_temperature;BMP_pressure;BME280_temperature;BME280_humidity;BME280_pressure;Samples;Min_cycle;Max_cycle;Signal;HPM_P1;HPM_P2
2022/01/14 00:00:49;;;;;;;55.47;22.00;;;0.90;99.70;;;;;;5032028;28;20472;-66
2022/01/14 00:03:16;;;;;;;58.30;22.97;;;0.40;99.70;;;;;;5032153;28;20447;-66
2022/01/14 00:05:44;;;;;;;53.53;22.80;;;0.20;99.70;;;;;;5031783;28;20443;-66
2022/01/14 00:08:11;;;;;;;52.70;21.53;;;0.00;99.70;;;;;;5031485;28;20480;-66
2022/01/14 00:10:40;;;;;;;57.73;22.70;;;0.00;99.70;;;;;;5031812;28;20936;-66
2022/01/14 00:13:16;;;;;;;60.67;23.37;;;0.00;99.70;;;;;;5031832;28;20954;-67
2022/01/14 00:15:43;;;;;;;51.47;21.67;;;0.10;99.70;;;;;;5031877;28;20448;-66
2022/01/14 00:18:09;;;;;;;54.73;24.00;;;0.10;99.70;;;;;;5031381;28;20785;-66
2022/01/14 00:20:36;;;;;;;53.33;22.53;;;0.00;99.70;;;;;;5031510;28;20472;-66
2022/01/14 00:23:06;;;;;;;55.73;22.27;;;0.00;99.70;;;;;;5031680;28;20444;-66
2022/01/14 00:34:02;;;;;;;57.50;23.30;;;-0.10;99.70;;;;;;4970828;28;20570;-66
2022/01/14 00:36:28;;;;;;;57.50;23.17;;;-0.20;99.70;;;;;;5004797;28;20457;-66
2022/01/14 00:38:56;;;;;;;58.30;22.80;;;-0.30;99.70;;;;;;5030152;28;20441;-66
2022/01/14 00:41:23;;;;;;;56.70;22.97;;;-0.40;99.70;;;;;;5031205;28;20464;-66
2022/01/14 00:43:56;;;;;;;56.53;22.40;;;-0.30;99.70;;;;;;5031370;28;20445;-66
2022/01/14 00:46:23;;;;;;;48.00;21.37;;;-0.30;99.70;;;;;;5031282;28;20445;-66
2022/01/14 00:48:49;;;;;;;52.60;21.90;;;-0.40;99.70;;;;;;5030954;28;20442;-66
2022/01/14 00:51:16;;;;;;;53.37;22.27;;;-0.50;99.70;;;;;;5031297;28;20526;-66
2022/01/14 00:53:43;;;;;;;52.13;22.07;;;-0.60;99.70;;;;;;5031316;28;20801;-66
2022/01/14 00:56:25;;;;;;;54.90;22.97;;;-0.70;99.70;;;;;;5031052;28;20440;-66
2022/01/14 01:01:36;;;;;;;57.97;21.60;;;-0.80;99.70;;;;;;5031132;28;20881;-67
2022/01/14 01:04:03;;;;;;;55.63;21.80;;;-0.80;99.70;;;;;;5031201;28;20444;-66
2022/01/14 01:06:30;;;;;;;55.80;22.07;;;-0.90;99.70;;;;;;5031093;28;20464;-67
2022/01/14 01:08:57;;;;;;;45.77;20.87;;;-0.70;99.70;;;;;;5030639;28;20445;-66
2022/01/14 01:11:30;;;;;;;53.73;22.13;;;-0.80;99.70;;;;;;5030957;28;20468;-66
2022/01/14 01:14:03;;;;;;;51.33;21.67;;;-1.00;99.70;;;;;;5031224;28;20796;-67
2022/01/14 01:16:30;;;;;;;54.70;23.10;;;-0.90;99.70;;;;;;5030948;28;20455;-66
2022/01/14 01:18:57;;;;;;;52.63;22.10;;;-0.90;99.70;;;;;;5030589;28;20840;-66
2022/01/14 01:21:23;;;;;;;56.83;21.90;;;-1.00;99.70;;;;;;5030703;28;20468;-66
2022/01/14 01:23:50;;;;;;;57.73;21.63;;;-1.00;99.70;;;;;;5030900;28;20516;-66
2022/01/14 01:26:24;;;;;;;54.07;21.47;;;-1.00;99.70;;;;;;5030802;28;20448;-66
2022/01/14 01:29:02;;;;;;;51.53;21.57;;;-1.10;99.70;;;;;;5030528;28;20452;-65
2022/01/14 01:31:41;;;;;;;52.97;21.27;;;-0.90;99.70;;;;;;5030713;28;20917;-66
2022/01/14 01:34:10;;;;;;;53.60;21.20;;;-0.90;99.70;;;;;;5030887;28;20446;-66
2022/01/14 01:36:39;;;;;;;57.70;21.30;;;-1.00;99.70;;;;;;5030921;28;20448;-66
2022/01/14 01:39:09;;;;;;;50.93;21.40;;;-1.00;99.70;;;;;;5030138;28;20444;-66
2022/01/14 01:41:37;;;;;;;50.97;21.53;;;-1.00;99.70;;;;;;5030677;28;20465;-66
2022/01/14 01:44:07;;;;;;;52.00;22.30;;;-0.90;99.70;;;;;;5030661;28;20448;-66
2022/01/14 01:46:37;;;;;;;54.30;22.17;;;-0.90;99.70;;;;;;5030655;28;20522;-67
2022/01/14 01:49:05;;;;;;;52.20;21.97;;;-0.90;99.70;;;;;;5030517;28;20445;-66
2022/01/14 01:51:32;;;;;;;50.47;20.90;;;-0.90;99.70;;;;;;5034327;28;20476;-66
2022/01/14 01:53:58;;;;;;;54.00;21.97;;;-0.90;99.70;;;;;;5034514;28;20441;-66
2022/01/14 01:56:25;;;;;;;48.77;21.13;;;-0.90;99.70;;;;;;5034425;28;20452;-66
2022/01/14 01:58:52;;;;;;;58.73;23.53;;;-0.90;99.70;;;;;;5033971;28;20502;-66
2022/01/14 02:01:20;;;;;;;52.13;22.17;;;-1.00;99.70;;;;;;5034153;28;20476;-66
2022/01/14 02:03:47;;;;;;;53.90;22.33;;;-1.10;99.70;;;;;;5034427;28;20539;-67
2022/01/14 02:06:13;;;;;;;53.33;22.10;;;-1.10;99.70;;;;;;5034291;28;20444;-66
2022/01/14 02:08:40;;;;;;;54.80;23.07;;;-1.20;99.70;;;;;;5033545;28;20571;-67
2022/01/14 02:11:07;;;;;;;50.43;22.70;;;-1.10;99.70;;;;;;5033978;28;20464;-66
2022/01/14 02:13:34;;;;;;;48.67;21.27;;;-1.00;99.70;;;;;;5034014;28;20452;-66
2022/01/14 02:16:19;;;;;;;48.13;20.67;;;-1.00;99.70;;;;;;5033980;28;20877;-66
2022/01/14 02:19:10;;;;;;;52.57;22.80;;;-0.90;99.70;;;;;;5033434;28;20451;-66
2022/01/14 02:24:34;;;;;;;55.03;23.20;;;-1.00;99.70;;;;;;5033980;28;20511;-66
2022/01/14 02:27:01;;;;;;;56.37;21.57;;;-1.10;99.70;;;;;;5033590;28;20479;-66
2022/01/14 02:29:28;;;;;;;56.77;22.53;;;-1.00;99.70;;;;;;5033257;28;20452;-67
2022/01/14 02:31:54;;;;;;;55.70;22.73;;;-1.10;99.70;;;;;;5033587;28;20445;-66
2022/01/14 02:34:21;;;;;;;54.00;22.80;;;-1.10;99.70;;;;;;5033546;28;20795;-66
2022/01/14 02:36:49;;;;;;;52.70;21.67;;;-1.00;99.70;;;;;;5033590;28;20492;-66
2022/01/14 02:39:18;;;;;;;50.63;21.23;;;-1.00;99.70;;;;;;5032672;28;20444;-66
2022/01/14 02:41:47;;;;;;;51.17;22.03;;;-0.80;99.70;;;;;;5033431;28;20472;-66
2022/01/14 02:44:23;;;;;;;50.57;21.60;;;-0.90;99.70;;;;;;5033301;28;20479;-66
2022/01/14 02:46:54;;;;;;;51.23;21.10;;;-0.90;99.70;;;;;;5033305;28;21020;-66
2022/01/14 02:49:20;;;;;;;51.80;21.30;;;-1.00;99.70;;;;;;5032914;28;20803;-67
2022/01/14 02:51:48;;;;;;;49.87;20.60;;;-1.00;99.70;;;;;;5033212;28;20476;-66
2022/01/14 02:54:20;;;;;;;53.63;21.60;;;-0.90;99.70;;;;;;5033262;28;20444;-66
2022/01/14 02:56:49;;;;;;;54.77;21.97;;;-0.90;99.70;;;;;;5033311;28;20456;-66
2022/01/14 02:59:17;;;;;;;49.87;21.10;;;-0.90;99.70;;;;;;5032832;28;20868;-66
2022/01/14 03:01:45;;;;;;;50.73;20.67;;;-0.90;99.70;;;;;;5032545;28;20476;-66
2022/01/14 03:04:16;;;;;;;50.80;21.37;;;-0.90;99.70;;;;;;5033071;28;20483;-67
2022/01/14 03:06:43;;;;;;;51.17;21.70;;;-0.80;99.70;;;;;;5033077;28;20819;-66
2022/01/14 03:09:11;;;;;;;49.57;20.07;;;-0.90;99.70;;;;;;5032509;28;20932;-66
2022/01/14 03:11:42;;;;;;;52.43;21.20;;;-0.90;99.70;;;;;;5032882;28;20515;-67
2022/01/14 03:14:10;;;;;;;49.80;22.03;;;-0.60;99.70;;;;;;5032847;28;20449;-66
2022/01/14 03:16:40;;;;;;;54.87;21.90;;;-0.40;99.70;;;;;;5032842;28;20444;-66
2022/01/14 03:19:13;;;;;;;52.83;20.60;;;-0.70;99.70;;;;;;5032452;28;20452;-66
2022/01/14 03:21:40;;;;;;;51.50;21.30;;;-0.90;99.70;;;;;;5032690;28;20977;-63
2022/01/14 03:24:18;;;;;;;50.63;20.60;;;-0.90;99.70;;;;;;5032640;28;20507;-67
2022/01/14 03:26:48;;;;;;;56.13;21.37;;;-1.00;99.70;;;;;;5032855;28;20844;-65
2022/01/14 03:29:16;;;;;;;49.27;20.50;;;-1.10;99.70;;;;;;5033023;28;20476;-66
2022/01/14 03:31:43;;;;;;;52.00;21.90;;;-1.20;99.70;;;;;;5032714;28;20460;-66
2022/01/14 03:34:10;;;;;;;52.33;21.03;;;-1.20;99.70;;;;;;5032476;28;20444;-66
2022/01/14 03:36:37;;;;;;;50.60;21.30;;;-1.10;99.70;;;;;;5032496;28;20946;-66
2022/01/14 03:39:04;;;;;;;51.83;21.47;;;-1.10;99.70;;;;;;5031242;28;20905;-66
2022/01/14 03:41:31;;;;;;;49.90;22.50;;;-1.20;99.70;;;;;;5032346;28;20469;-66
2022/01/14 03:43:59;;;;;;;53.63;21.60;;;-1.30;99.70;;;;;;5032496;28;20452;-66
2022/01/14 03:46:25;;;;;;;51.83;21.23;;;-1.40;99.70;;;;;;5032150;28;20449;-65
2022/01/14 03:48:52;;;;;;;49.40;20.93;;;-1.40;99.70;;;;;;5031670;28;20487;-66
2022/01/14 03:51:19;;;;;;;52.30;22.37;;;-1.40;99.70;;;;;;5032197;28;20496;-66
2022/01/14 03:53:47;;;;;;;56.10;20.83;;;-1.40;99.70;;;;;;5032446;28;20634;-66
2022/01/14 03:56:14;;;;;;;49.40;21.13;;;-1.40;99.70;;;;;;5032053;28;20451;-66
2022/01/14 03:58:41;;;;;;;46.63;21.20;;;-1.50;99.70;;;;;;5031572;28;20524;-66
2022/01/14 04:01:10;;;;;;;52.03;21.80;;;-1.50;99.70;;;;;;5031879;28;20511;-65
2022/01/14 04:03:37;;;;;;;47.23;19.83;;;-1.30;99.70;;;;;;5031945;28;20459;-66
2022/01/14 04:06:04;;;;;;;51.00;22.47;;;-1.40;99.70;;;;;;5032061;28;20464;-66
2022/01/14 04:08:30;;;;;;;53.00;20.90;;;-1.40;99.70;;;;;;5031410;28;20484;-66
2022/01/14 04:11:00;;;;;;;53.40;21.10;;;-1.40;99.70;;;;;;5031862;28;20829;-66
2022/01/14 04:13:37;;;;;;;51.47;21.80;;;-1.40;99.70;;;;;;5031200;28;20451;-66
2022/01/14 04:16:04;;;;;;;53.70;21.40;;;-1.40;99.70;;;;;;5031826;28;20889;-66
2022/01/14 04:18:32;;;;;;;48.33;19.90;;;-1.50;99.70;;;;;;5031361;28;20437;-66
2022/01/14 04:20:59;;;;;;;53.37;20.40;;;-1.40;99.70;;;;;;5031718;28;20468;-66
2022/01/14 04:23:25;;;;;;;54.33;20.73;;;-1.40;99.70;;;;;;5031755;28;20445;-67
2022/01/14 04:25:53;;;;;;;45.53;19.60;;;-1.30;99.70;;;;;;5031530;28;20453;-66
2022/01/14 04:28:22;;;;;;;46.33;19.67;;;-1.30;99.70;;;;;;5031184;28;20480;-66
2022/01/14 04:30:54;;;;;;;43.27;18.80;;;-1.40;99.70;;;;;;5031445;28;20464;-66
2022/01/14 04:33:20;;;;;;;46.87;19.50;;;-1.40;99.70;;;;;;5031624;28;20873;-66
2022/01/14 04:35:48;;;;;;;50.23;20.13;;;-1.50;99.70;;;;;;5031348;28;20452;-67
2022/01/14 04:38:15;;;;;;;47.13;20.10;;;-1.60;99.70;;;;;;5030761;28;20441;-66
2022/01/14 04:40:42;;;;;;;49.50;20.43;;;-1.60;99.70;;;;;;5031314;28;20471;-66
2022/01/14 04:43:11;;;;;;;43.77;19.70;;;-1.50;99.70;;;;;;5031408;28;20444;-66
2022/01/14 04:45:48;;;;;;;45.80;20.23;;;-1.60;99.70;;;;;;5031299;28;20490;-67
2022/01/14 04:48:15;;;;;;;49.27;18.37;;;-1.50;99.70;;;;;;5030839;28;20906;-67
2022/01/14 04:50:41;;;;;;;45.77;18.80;;;-1.50;99.70;;;;;;5031367;28;21051;-66
2022/01/14 04:53:11;;;;;;;47.37;19.33;;;-1.60;99.70;;;;;;5031229;28;20448;-67
2022/01/14 04:55:38;;;;;;;54.43;20.37;;;-1.60;99.70;;;;;;5031243;28;20449;-66
2022/01/14 04:58:06;;;;;;;46.73;20.57;;;-1.60;99.70;;;;;;5030984;28;20933;-66
2022/01/14 05:00:33;;;;;;;46.07;18.80;;;-1.50;99.70;;;;;;5065268;23;20501;-66
2022/01/14 05:03:00;;;;;;;51.30;19.93;;;-1.60;99.70;;;;;;5010712;28;20445;-65
2022/01/14 05:05:29;;;;;;;56.17;20.13;;;-1.70;99.70;;;;;;5011032;28;20903;-66
2022/01/14 05:07:56;;;;;;;48.10;20.93;;;-1.70;99.70;;;;;;5011077;28;20484;-65
2022/01/14 05:10:35;;;;;;;54.60;22.57;;;-1.80;99.70;;;;;;5011146;28;20604;-65
2022/01/14 05:13:03;;;;;;;50.33;20.70;;;-1.80;99.70;;;;;;5011565;28;20449;-65
2022/01/14 05:15:30;;;;;;;55.47;20.63;;;-1.90;99.70;;;;;;5011212;28;20484;-65
2022/01/14 05:17:56;;;;;;;50.80;20.83;;;-1.80;99.70;;;;;;5010805;28;20496;-65
2022/01/14 05:20:23;;;;;;;55.20;22.37;;;-1.80;99.70;;;;;;5011151;28;20461;-64
2022/01/14 05:22:50;;;;;;;59.23;22.07;;;-1.80;99.70;;;;;;5011432;28;20445;-66
2022/01/14 05:25:17;;;;;;;53.57;22.00;;;-1.90;99.70;;;;;;5013028;28;20807;-66
2022/01/14 05:27:45;;;;;;;53.83;22.03;;;-1.80;99.70;;;;;;5014854;28;20958;-65
2022/01/14 05:30:14;;;;;;;51.53;21.97;;;-1.80;99.70;;;;;;5014962;28;20469;-65
2022/01/14 05:32:46;;;;;;;57.97;22.10;;;-1.80;99.70;;;;;;5015048;28;20452;-65
2022/01/14 05:35:15;;;;;;;45.40;19.17;;;-1.80;99.70;;;;;;5014950;28;20464;-65
2022/01/14 05:37:41;;;;;;;55.23;20.30;;;-1.80;99.70;;;;;;5014820;28;20504;-65
2022/01/14 05:40:09;;;;;;;49.03;19.90;;;-1.90;99.70;;;;;;5013765;28;20823;-65
2022/01/14 05:42:36;;;;;;;50.33;20.80;;;-1.80;99.70;;;;;;5014988;28;20449;-65
2022/01/14 05:45:05;;;;;;;44.77;20.53;;;-1.80;99.70;;;;;;5014721;28;20523;-65
2022/01/14 05:47:32;;;;;;;53.37;20.80;;;-1.70;99.70;;;;;;5014903;28;20556;-65
2022/01/14 05:49:58;;;;;;;45.57;19.93;;;-1.70;99.70;;;;;;5014404;28;20477;-65
2022/01/14 05:52:25;;;;;;;46.97;19.53;;;-1.50;99.70;;;;;;5001712;28;20458;-65
2022/01/14 05:54:53;;;;;;;50.30;21.23;;;-1.60;99.70;;;;;;5002381;28;20464;-66
2022/01/14 05:57:20;;;;;;;47.67;19.23;;;-1.70;99.70;;;;;;5004065;28;20836;-66
2022/01/14 05:59:47;;;;;;;45.93;19.70;;;-1.80;99.70;;;;;;4999664;28;20449;-66
2022/01/14 06:02:15;;;;;;;42.23;19.13;;;-1.80;99.70;;;;;;5003200;28;20488;-66
2022/01/14 06:04:43;;;;;;;50.93;20.30;;;-1.80;99.70;;;;;;5002459;28;20469;-66
2022/01/14 06:07:10;;;;;;;45.90;19.70;;;-1.70;99.70;;;;;;5002359;28;20466;-66
2022/01/14 06:09:37;;;;;;;41.33;19.13;;;-1.50;99.70;;;;;;4998981;28;20490;-67
2022/01/14 06:12:04;;;;;;;48.23;21.13;;;-1.40;99.70;;;;;;5002442;28;20989;-66
2022/01/14 06:14:31;;;;;;;42.57;18.90;;;-1.30;99.70;;;;;;5007122;28;20489;-66
2022/01/14 06:16:58;;;;;;;47.73;19.60;;;-1.40;99.70;;;;;;5004133;28;20445;-65
2022/01/14 06:19:29;;;;;;;49.90;19.93;;;-1.40;99.70;;;;;;5005695;28;20482;-66
2022/01/14 06:21:56;;;;;;;47.57;19.47;;;-1.60;99.70;;;;;;5003430;28;20851;-66
2022/01/14 06:24:23;;;;;;;51.03;21.10;;;-1.60;99.70;;;;;;5003930;28;20549;-66
2022/01/14 06:26:50;;;;;;;44.63;20.07;;;-1.70;99.70;;;;;;5007890;28;20450;-65
2022/01/14 06:29:17;;;;;;;47.77;18.97;;;-1.70;99.70;;;;;;4996145;28;20497;-66
2022/01/14 06:31:43;;;;;;;47.30;19.50;;;-1.70;99.70;;;;;;4992081;28;20470;-66
2022/01/14 06:34:11;;;;;;;43.57;18.67;;;-1.70;99.70;;;;;;4998068;28;20445;-67
2022/01/14 06:36:39;;;;;;;48.53;19.80;;;-1.80;99.70;;;;;;5012330;28;20508;-66
2022/01/14 06:39:06;;;;;;;48.37;19.90;;;-1.80;99.70;;;;;;5012517;28;20457;-66
2022/01/14 06:41:33;;;;;;;43.03;18.10;;;-1.80;99.70;;;;;;5012947;28;20846;-67
2022/01/14 06:44:00;;;;;;;41.20;18.50;;;-1.80;99.70;;;;;;5013649;28;20532;-67
2022/01/14 06:46:27;;;;;;;45.40;19.80;;;-1.80;99.70;;;;;;5013803;28;20823;-66
2022/01/14 06:48:53;;;;;;;51.47;18.80;;;-1.80;99.70;;;;;;5013354;28;20481;-67
2022/01/14 06:51:20;;;;;;;46.17;18.67;;;-1.70;99.70;;;;;;5013346;28;20519;-67
2022/01/14 06:53:48;;;;;;;45.40;19.37;;;-1.60;99.70;;;;;;5013753;28;20487;-66
2022/01/14 06:56:15;;;;;;;49.90;19.77;;;-1.60;99.70;;;;;;5013315;28;20442;-66
2022/01/14 06:58:42;;;;;;;47.57;18.83;;;-1.60;99.70;;;;;;5012321;28;20442;-66
2022/01/14 07:01:09;;;;;;;48.20;19.20;;;-1.50;99.70;;;;;;5012384;28;20481;-66
2022/01/14 07:03:36;;;;;;;50.10;19.43;;;-1.60;99.70;;;;;;5013255;28;20512;-67
2022/01/14 07:06:03;;;;;;;45.43;19.03;;;-1.80;99.70;;;;;;5013525;28;20464;-66
2022/01/14 07:08:30;;;;;;;44.73;19.40;;;-1.70;99.70;;;;;;5009665;28;20477;-66
2022/01/14 07:10:58;;;;;;;46.27;19.50;;;-1.70;99.70;;;;;;5013212;28;20477;-66
2022/01/14 07:13:25;;;;;;;56.50;21.53;;;-1.60;99.70;;;;;;5013038;28;20449;-67
2022/01/14 07:15:51;;;;;;;58.40;23.30;;;-1.70;99.70;;;;;;4999966;28;20474;-66
2022/01/14 07:18:18;;;;;;;55.27;23.27;;;-1.60;99.70;;;;;;5010135;28;20450;-67
2022/01/14 07:20:45;;;;;;;65.23;23.07;;;-1.60;99.70;;;;;;5011335;28;20469;-66
2022/01/14 07:23:11;;;;;;;77.20;27.07;;;-1.60;99.70;;;;;;5010136;28;20450;-67
2022/01/14 07:25:39;;;;;;;63.87;25.33;;;-1.60;99.70;;;;;;5011326;28;20508;-66
2022/01/14 07:28:07;;;;;;;71.27;28.33;;;-1.50;99.70;;;;;;5009131;28;20482;-66
2022/01/14 07:30:34;;;;;;;50.03;21.97;;;-1.60;99.70;;;;;;5011211;28;20567;-67
2022/01/14 07:33:01;;;;;;;54.67;20.90;;;-1.70;99.70;;;;;;5009407;28;20446;-67
2022/01/14 07:35:28;;;;;;;45.00;19.03;;;-1.40;99.70;;;;;;5006637;28;20889;-67
2022/01/14 07:37:55;;;;;;;45.13;20.07;;;-1.00;99.70;;;;;;5008786;28;20509;-67
2022/01/14 07:40:21;;;;;;;51.70;20.10;;;-1.30;99.70;;;;;;5008807;28;20465;-67
2022/01/14 07:42:48;;;;;;;39.90;17.17;;;-1.40;99.70;;;;;;5007001;28;20452;-67
2022/01/14 07:45:16;;;;;;;41.43;17.50;;;-0.80;99.70;;;;;;5011102;28;20990;-67
2022/01/14 07:47:43;;;;;;;49.50;18.50;;;-1.00;99.70;;;;;;5008801;28;20457;-66
2022/01/14 07:50:10;;;;;;;43.30;18.10;;;-1.30;99.70;;;;;;5010535;28;20492;-66
2022/01/14 07:52:36;;;;;;;44.07;19.80;;;-1.30;99.70;;;;;;5009692;28;20445;-66
2022/01/14 07:55:04;;;;;;;54.73;20.03;;;-1.50;99.70;;;;;;5004418;28;20450;-66
2022/01/14 07:57:30;;;;;;;56.50;23.50;;;-1.50;99.70;;;;;;5001891;28;20450;-66
2022/01/14 07:59:57;;;;;;;42.90;18.83;;;-1.50;99.70;;;;;;4994107;28;20451;-67
2022/01/14 08:02:25;;;;;;;49.13;20.60;;;-1.50;99.70;;;;;;5002356;28;20442;-66
2022/01/14 08:04:52;;;;;;;49.47;20.20;;;-1.40;99.70;;;;;;5004364;28;20529;-66
2022/01/14 08:07:22;;;;;;;48.97;19.93;;;-1.40;99.70;;;;;;4997512;28;20454;-67
2022/01/14 08:09:49;;;;;;;51.93;21.03;;;-1.40;99.70;;;;;;4994357;28;20832;-66
2022/01/14 08:12:16;;;;;;;50.60;20.73;;;-1.30;99.70;;;;;;4994127;28;20554;-66
2022/01/14 08:14:43;;;;;;;54.20;21.03;;;-1.20;99.70;;;;;;4994297;28;20455;-66
2022/01/14 08:17:11;;;;;;;56.90;21.07;;;-1.20;99.70;;;;;;4992849;28;20966;-65
2022/01/14 08:19:40;;;;;;;53.10;20.80;;;-1.20;99.70;;;;;;4994022;28;21023;-66
2022/01/14 08:22:07;;;;;;;46.90;20.07;;;-0.90;99.70;;;;;;4993265;28;20470;-66
2022/01/14 08:24:35;;;;;;;44.97;19.50;;;-1.00;99.70;;;;;;4994322;28;20449;-66
2022/01/14 08:27:02;;;;;;;46.03;19.87;;;-1.00;99.70;;;;;;4993353;28;20454;-67
2022/01/14 08:29:30;;;;;;;48.40;19.33;;;-1.00;99.70;;;;;;4993929;28;20497;-66
2022/01/14 08:31:57;;;;;;;49.40;20.30;;;-1.00;99.70;;;;;;4993220;28;21000;-66
2022/01/14 08:34:24;;;;;;;44.53;19.27;;;-0.90;99.70;;;;;;4993594;28;20478;-66
2022/01/14 08:36:52;;;;;;;45.40;19.47;;;-0.90;99.70;;;;;;4993371;28;20454;-66
2022/01/14 08:39:19;;;;;;;45.50;19.77;;;-0.80;99.70;;;;;;4993070;28;20975;-66
2022/01/14 08:41:46;;;;;;;46.50;19.33;;;-0.80;99.70;;;;;;4993285;28;20501;-66
2022/01/14 08:44:14;;;;;;;47.30;20.23;;;-0.50;99.70;;;;;;4993455;28;20453;-66
2022/01/14 08:46:41;;;;;;;44.93;19.47;;;-0.60;99.70;;;;;;4993540;28;20450;-67
2022/01/14 08:49:09;;;;;;;44.57;18.47;;;-0.80;99.70;;;;;;4992401;28;20556;-66
2022/01/14 08:51:36;;;;;;;41.43;17.70;;;-0.80;99.70;;;;;;4991829;28;20473;-66
2022/01/14 08:54:04;;;;;;;41.93;17.67;;;-0.70;99.70;;;;;;4991417;28;20455;-67
2022/01/14 08:56:32;;;;;;;42.00;19.00;;;0.80;99.70;;;;;;4991515;28;20578;-66
2022/01/14 08:58:59;;;;;;;41.17;19.13;;;1.00;99.70;;;;;;4990637;28;20446;-66
2022/01/14 09:01:26;;;;;;;46.60;18.90;;;0.60;99.70;;;;;;4993710;28;20527;-67
2022/01/14 09:03:52;;;;;;;43.60;19.93;;;0.20;99.70;;;;;;4992878;28;20450;-67
2022/01/14 09:06:19;;;;;;;43.80;21.27;;;0.10;99.70;;;;;;4994091;28;20779;-67
2022/01/14 09:08:46;;;;;;;47.00;19.87;;;-0.10;99.70;;;;;;4992244;28;20495;-67
2022/01/14 09:11:14;;;;;;;45.47;19.93;;;-0.10;99.70;;;;;;4993835;28;20508;-69
2022/01/14 09:13:41;;;;;;;45.13;19.53;;;-0.20;99.70;;;;;;4992703;28;20520;-66
2022/01/14 09:16:07;;;;;;;51.23;21.03;;;-0.40;99.70;;;;;;4993925;28;20508;-67
2022/01/14 09:18:34;;;;;;;46.33;20.17;;;-0.30;99.70;;;;;;4991874;28;20446;-66
2022/01/14 09:21:01;;;;;;;49.10;20.20;;;-0.30;99.70;;;;;;4993930;28;20462;-68
2022/01/14 09:23:29;;;;;;;43.03;19.33;;;-0.30;99.70;;;;;;4992519;28;20948;-67
2022/01/14 09:25:56;;;;;;;50.37;19.83;;;-0.30;99.70;;;;;;4993499;28;20465;-67
2022/01/14 09:28:24;;;;;;;44.90;19.70;;;-0.20;99.70;;;;;;4992336;28;20446;-67
2022/01/14 09:30:51;;;;;;;43.70;18.30;;;-0.10;99.70;;;;;;4992678;28;20494;-66
2022/01/14 09:33:18;;;;;;;51.67;20.97;;;0.00;99.70;;;;;;4993396;28;20454;-66
2022/01/14 09:35:46;;;;;;;48.30;20.90;;;0.00;99.70;;;;;;4992621;28;20469;-66
2022/01/14 09:38:13;;;;;;;64.63;25.73;;;0.10;99.70;;;;;;4989819;28;20450;-67
2022/01/14 09:40:43;;;;;;;56.63;21.60;;;0.10;99.70;;;;;;4990961;28;20889;-67
2022/01/14 09:43:13;;;;;;;55.90;22.17;;;0.20;99.70;;;;;;4991016;28;20450;-67
2022/01/14 09:45:41;;;;;;;45.07;19.80;;;0.20;99.70;;;;;;4991163;28;20458;-67
2022/01/14 09:48:08;;;;;;;51.60;20.47;;;0.20;99.70;;;;;;4990579;28;20943;-67
2022/01/14 09:50:35;;;;;;;51.33;21.20;;;0.30;99.70;;;;;;4991064;28;20485;-67
2022/01/14 09:53:02;;;;;;;44.90;20.70;;;0.30;99.70;;;;;;4992118;28;20458;-67
2022/01/14 09:55:29;;;;;;;48.10;21.33;;;0.30;99.70;;;;;;4992596;28;20450;-67
2022/01/14 09:57:57;;;;;;;46.30;20.27;;;0.40;99.70;;;;;;4993769;28;20457;-67
2022/01/14 10:00:24;;;;;;;43.67;20.13;;;0.50;99.70;;;;;;4992485;28;20545;-67
2022/01/14 10:02:52;;;;;;;44.73;20.73;;;0.60;99.70;;;;;;4994197;28;20472;-66
2022/01/14 10:05:35;;;;;;;45.03;20.53;;;0.80;99.70;;;;;;4992048;28;20490;-67
2022/01/14 10:08:16;;;;;;;48.67;20.20;;;1.00;99.70;;;;;;4991438;28;20458;-67
2022/01/14 10:10:46;;;;;;;48.57;19.00;;;1.00;99.70;;;;;;4992444;28;20548;-66
2022/01/14 10:13:14;;;;;;;42.80;19.13;;;1.40;99.70;;;;;;4994684;28;20454;-67
2022/01/14 10:15:48;;;;;;;46.40;20.03;;;1.20;99.70;;;;;;4994754;28;21013;-67
2022/01/14 10:18:18;;;;;;;51.00;20.50;;;1.30;99.70;;;;;;5009740;28;20449;-66
2022/01/14 10:20:45;;;;;;;46.30;19.70;;;1.40;99.70;;;;;;5012626;28;20469;-66
2022/01/14 10:23:13;;;;;;;45.23;19.83;;;1.30;99.70;;;;;;5011011;28;20829;-66
2022/01/14 10:25:41;;;;;;;40.50;19.63;;;1.30;99.70;;;;;;5012558;28;20503;-66
2022/01/14 10:28:18;;;;;;;47.03;20.10;;;1.50;99.70;;;;;;5010477;28;20524;-66
2022/01/14 10:30:47;;;;;;;48.30;20.20;;;1.60;99.70;;;;;;5012392;28;20576;-67
2022/01/14 10:33:14;;;;;;;48.90;21.07;;;1.50;99.70;;;;;;4994171;28;20453;-67
2022/01/14 10:35:45;;;;;;;49.73;20.73;;;1.50;99.70;;;;;;4994170;28;20446;-66
2022/01/14 10:38:14;;;;;;;43.13;19.40;;;1.50;99.70;;;;;;4991986;28;20458;-66
2022/01/14 10:40:44;;;;;;;44.60;19.30;;;1.70;99.70;;;;;;4993937;28;20502;-66
2022/01/14 10:43:12;;;;;;;39.63;19.70;;;1.70;99.70;;;;;;5007047;28;20461;-67
2022/01/14 10:45:40;;;;;;;43.87;19.77;;;1.70;99.70;;;;;;4995670;28;20459;-66
2022/01/14 10:48:08;;;;;;;44.60;19.67;;;1.70;99.70;;;;;;4996016;28;20450;-67
2022/01/14 10:50:38;;;;;;;41.17;16.87;;;1.70;99.70;;;;;;4994988;28;20494;-66
2022/01/14 10:53:11;;;;;;;36.30;16.73;;;1.80;99.70;;;;;;4998678;28;20457;-66
2022/01/14 10:55:40;;;;;;;40.13;17.87;;;1.90;99.70;;;;;;5012058;28;20480;-66
2022/01/14 10:58:12;;;;;;;40.60;17.90;;;2.10;99.70;;;;;;5009973;28;20458;-66
2022/01/14 11:00:41;;;;;;;41.60;17.40;;;2.20;99.70;;;;;;5012787;28;20508;-66
2022/01/14 11:03:08;;;;;;;40.40;17.90;;;2.20;99.70;;;;;;5009827;28;20446;-66
2022/01/14 11:05:35;;;;;;;34.73;16.00;;;2.30;99.70;;;;;;5011684;28;20471;-66
2022/01/14 11:08:02;;;;;;;36.20;16.20;;;2.40;99.70;;;;;;5009616;28;20546;-65
2022/01/14 11:10:33;;;;;;;39.33;18.47;;;2.50;99.70;;;;;;5011489;28;20489;-65
2022/01/14 11:13:01;;;;;;;39.03;18.10;;;2.40;99.70;;;;;;5009791;28;20880;-66
2022/01/14 11:15:30;;;;;;;36.30;16.60;;;2.40;99.70;;;;;;5011405;28;20507;-66
2022/01/14 11:18:00;;;;;;;36.37;17.10;;;2.50;99.70;;;;;;5009585;28;20485;-66
2022/01/14 11:20:33;;;;;;;35.90;16.33;;;2.60;99.70;;;;;;5011320;28;20476;-66
2022/01/14 11:23:15;;;;;;;31.83;14.13;;;2.70;99.70;;;;;;5008733;28;20455;-66
2022/01/14 11:25:53;;;;;;;36.60;16.73;;;2.80;99.70;;;;;;5011406;28;20453;-66
2022/01/14 11:28:28;;;;;;;35.40;15.43;;;2.90;99.70;;;;;;5010031;28;20508;-67
2022/01/14 11:30:54;;;;;;;33.47;14.30;;;3.00;99.70;;;;;;5010172;28;20488;-66
2022/01/14 11:33:37;;;;;;;34.90;14.60;;;3.00;99.70;;;;;;4994520;28;20472;-65
2022/01/14 11:36:06;;;;;;;38.67;16.93;;;3.10;99.70;;;;;;4995214;28;20447;-66
2022/01/14 11:38:42;;;;;;;35.47;15.57;;;3.10;99.70;;;;;;4996350;28;20449;-65
2022/01/14 11:41:12;;;;;;;33.60;15.77;;;3.20;99.70;;;;;;5003689;28;20525;-66
2022/01/14 11:43:49;;;;;;;30.97;14.67;;;3.20;99.70;;;;;;4993346;28;20529;-66
2022/01/14 11:46:43;;;;;;;33.97;15.27;;;3.30;99.70;;;;;;4992542;28;20509;-66
2022/01/14 11:49:32;;;;;;;36.57;16.77;;;3.40;99.70;;;;;;4992076;28;20951;-66
2022/01/14 11:52:00;;;;;;;37.83;17.50;;;3.50;99.70;;;;;;4992050;28;20463;-67
2022/01/14 11:54:41;;;;;;;38.43;16.10;;;3.50;99.70;;;;;;4995206;28;20825;-65
2022/01/14 11:57:10;;;;;;;38.10;18.13;;;3.60;99.70;;;;;;5001526;28;20457;-67
2022/01/14 11:59:40;;;;;;;43.53;17.10;;;3.70;99.70;;;;;;4998073;28;20757;-66
2022/01/14 12:02:27;;;;;;;41.30;18.63;;;3.70;99.70;;;;;;4993636;28;20847;-66
2022/01/14 12:05:04;;;;;;;44.37;18.47;;;3.80;99.70;;;;;;4991997;28;20431;-66
2022/01/14 12:07:33;;;;;;;48.07;19.33;;;3.80;99.70;;;;;;4999197;28;20438;-66
2022/01/14 12:10:01;;;;;;;48.60;19.40;;;3.80;99.70;;;;;;4991111;28;20486;-66
2022/01/14 12:12:31;;;;;;;45.43;19.30;;;3.90;99.70;;;;;;4991731;28;20447;-66
2022/01/14 12:15:01;;;;;;;47.67;19.37;;;3.90;99.70;;;;;;4991890;28;20456;-66
2022/01/14 12:17:34;;;;;;;45.13;18.47;;;4.00;99.70;;;;;;4992035;28;20458;-66
2022/01/14 12:20:09;;;;;;;36.50;16.83;;;4.10;99.70;;;;;;4992610;28;20971;-66
2022/01/14 12:22:35;;;;;;;42.53;17.87;;;4.10;99.70;;;;;;5010760;28;20947;-66
2022/01/14 12:25:02;;;;;;;34.13;17.03;;;4.10;99.70;;;;;;5004819;28;20442;-66
2022/01/14 12:27:41;;;;;;;36.43;17.50;;;4.20;99.70;;;;;;5006543;28;20445;-66
2022/01/14 12:30:11;;;;;;;38.80;16.37;;;4.30;99.70;;;;;;5009604;28;21092;-66
2022/01/14 12:32:41;;;;;;;34.57;16.07;;;4.30;99.70;;;;;;5010668;28;20444;-66
2022/01/14 12:35:11;;;;;;;32.87;16.07;;;4.40;99.70;;;;;;5009894;28;20502;-66
2022/01/14 12:37:40;;;;;;;37.77;16.83;;;4.40;99.70;;;;;;5000372;28;20975;-65
2022/01/14 12:40:10;;;;;;;36.40;16.87;;;4.50;99.70;;;;;;4995643;28;20479;-66
2022/01/14 12:42:40;;;;;;;36.00;16.90;;;4.40;99.70;;;;;;5000451;28;20453;-66
2022/01/14 12:45:10;;;;;;;32.70;15.27;;;4.60;99.70;;;;;;5008484;28;20451;-66
2022/01/14 12:47:41;;;;;;;39.77;16.80;;;4.70;99.70;;;;;;4998513;28;20454;-66
2022/01/14 12:50:10;;;;;;;30.30;15.93;;;4.70;99.70;;;;;;4991815;28;20454;-66
2022/01/14 12:52:47;;;;;;;31.00;15.30;;;4.70;99.70;;;;;;5004527;28;20537;-67